createdAt,value
2022-12-31T00:00:28.558Z,129.54217
2022-12-31T00:05:30.167Z,132.3792
2022-12-31T00:10:31.930Z,132.3792
2022-12-31T00:15:33.830Z,131.23404
2022-12-31T00:20:35.305Z,132.3792
2022-12-31T00:25:36.922Z,130.66667
2022-12-31T00:30:38.815Z,131.23404
2022-12-31T00:35:40.278Z,134.12346
2022-12-31T00:40:41.772Z,140.17834
2022-12-31T00:45:43.416Z,137.71069
2022-12-31T00:50:44.944Z,140.17834
2022-12-31T00:55:46.604Z,142.07074
2022-12-31T01:00:48.425Z,137.71069
2022-12-31T01:05:49.965Z,132.95706
2022-12-31T01:10:51.478Z,127.33333
2022-12-31T01:15:53.263Z,121.01149
2022-12-31T01:20:54.811Z,120.5043
2022-12-31T01:25:57.163Z,117.52113
2022-12-31T01:30:58.896Z,117.03371
2022-12-31T01:36:00.625Z,119
2022-12-31T01:41:02.400Z,119.49858
2022-12-31T01:46:04.787Z,120.5043
2022-12-31T01:51:06.563Z,125.17647
2022-12-31T01:56:08.597Z,126.24852
2022-12-31T02:01:10.403Z,125.71091
2022-12-31T02:06:12.305Z,128.98498
2022-12-31T02:11:14.083Z,127.33333
2022-12-31T02:16:15.956Z,125.71091
2022-12-31T02:21:17.637Z,126.78932
2022-12-31T02:26:19.620Z,123.06977
2022-12-31T02:31:21.421Z,118.50425
2022-12-31T02:36:23.187Z,116.54902
2022-12-31T02:41:24.686Z,115.58774
2022-12-31T02:46:26.599Z,115.11111
2022-12-31T02:51:28.400Z,114.63712
2022-12-31T02:56:30.359Z,115.58774
2022-12-31T03:01:32.477Z,117.03371
2022-12-31T03:06:34.341Z,116.54902
2022-12-31T03:11:36.109Z,115.11111
2022-12-31T03:16:37.770Z,115.11111
2022-12-31T03:21:39.481Z,114.16575
2022-12-31T03:26:41.261Z,114.16575
2022-12-31T03:31:42.933Z,114.63712
2022-12-31T03:36:44.439Z,113.69697
2022-12-31T03:41:46.020Z,111.84741
2022-12-31T03:46:47.862Z,110.48649
2022-12-31T03:51:49.423Z,108.26667
2022-12-31T03:56:55.362Z,106.96296
2022-12-31T04:02:01.819Z,106.53298
2022-12-31T04:07:03.657Z,107.39523
2022-12-31T04:12:05.393Z,108.26667
2022-12-31T04:17:07.127Z,111.3913
2022-12-31T04:22:08.891Z,116.54902
2022-12-31T04:27:10.670Z,120
2022-12-31T04:32:12.494Z,121.01149
2022-12-31T04:37:14.260Z,122.03468
2022-12-31T04:42:16.015Z,119.49858
2022-12-31T04:47:23.296Z,119.49858
2022-12-31T04:52:25.556Z,115.11111
2022-12-31T04:57:27.517Z,117.03371
2022-12-31T05:02:29.466Z,115.58774
2022-12-31T05:07:31.349Z,116.06704
2022-12-31T05:12:33.135Z,115.58774
2022-12-31T05:17:34.891Z,118.0113
2022-12-31T05:22:36.691Z,116.06704
2022-12-31T05:27:38.450Z,120
2022-12-31T05:32:40.001Z,114.63712
2022-12-31T05:37:41.603Z,117.03371
2022-12-31T05:42:43.260Z,125.17647
2022-12-31T05:47:45.086Z,123.06977
2022-12-31T05:52:47.720Z,125.71091
2022-12-31T05:57:49.771Z,127.33333
2022-12-31T06:02:51.451Z,130.66667
2022-12-31T06:07:53.370Z,132.3792
2022-12-31T06:12:54.804Z,134.12346
2022-12-31T06:17:56.489Z,128.98498
2022-12-31T06:22:58.099Z,131.80488
2022-12-31T06:27:59.755Z,134.71207
2022-12-31T06:33:01.491Z,139.55556
2022-12-31T06:38:03.213Z,139.55556
2022-12-31T06:43:04.807Z,140.17834
2022-12-31T06:48:06.875Z,135.30435
2022-12-31T06:53:08.473Z,150.02007
2022-12-31T06:58:10.151Z,155.68385
2022-12-31T07:03:11.705Z,155.68385
2022-12-31T07:08:13.268Z,158.63415
2022-12-31T07:13:14.854Z,154.23891
2022-12-31T07:18:16.286Z,157.14879
2022-12-31T07:23:17.998Z,162.43972
2022-12-31T07:28:19.755Z,154.9589
2022-12-31T07:33:21.345Z,168.81752
2022-12-31T07:38:22.805Z,163.21708
2022-12-31T07:43:24.564Z,162.43972
2022-12-31T07:48:26.208Z,166.38267
2022-12-31T07:53:27.878Z,157.88889
2022-12-31T07:58:29.492Z,160.90141
2022-12-31T08:03:31.082Z,168.81752
2022-12-31T08:08:32.671Z,158.63415
2022-12-31T08:13:34.163Z,144.65147
2022-12-31T08:18:35.875Z,167.18841
2022-12-31T08:23:37.316Z,166.38267
2022-12-31T08:28:38.989Z,162.43972
2022-12-31T08:33:40.493Z,173.85075
2022-12-31T08:38:42.004Z,164.78853
2022-12-31T08:43:43.459Z,164.78853
2022-12-31T08:48:45.211Z,172.99628
2022-12-31T08:53:46.768Z,171.30627
2022-12-31T08:58:48.431Z,188.44444
2022-12-31T09:03:50.088Z,181.83784
2022-12-31T09:08:51.564Z,174.71161
2022-12-31T09:13:53.310Z,185.56863
2022-12-31T09:18:54.895Z,179.1145
2022-12-31T09:23:56.399Z,202.82353
2022-12-31T09:28:58.076Z,194.4065
2022-12-31T09:33:59.784Z,188.44444
2022-12-31T09:39:01.353Z,185.56863
2022-12-31T09:44:03.117Z,188.44444
2022-12-31T09:49:05.186Z,194.4065
2022-12-31T09:54:06.651Z,196.45902
2022-12-31T09:59:08.308Z,200.66667
2022-12-31T10:04:10.165Z,207.24786
2022-12-31T10:09:11.909Z,220.23318
2022-12-31T10:14:13.514Z,222.73303
2022-12-31T10:19:15.294Z,259.89744
2022-12-31T10:24:16.779Z,252
2022-12-31T10:29:18.410Z,245.96078
2022-12-31T10:34:19.976Z,248.9505
2022-12-31T10:39:24.421Z,240.15385
2022-12-31T10:44:26.655Z,321.91411
2022-12-31T10:49:28.534Z,317.33333
2022-12-31T10:54:30.071Z,351.94702
2022-12-31T10:59:32.727Z,329
2022-12-31T11:04:34.405Z,308.49704
2022-12-31T11:09:36.154Z,290.06742
2022-12-31T11:14:37.858Z,338.87179
2022-12-31T11:19:39.449Z,278.78261
2022-12-31T11:24:40.998Z,344
2022-12-31T11:29:42.869Z,368.82759
2022-12-31T11:34:44.549Z,403.70149
2022-12-31T11:39:45.974Z,410.66667
2022-12-31T11:44:47.701Z,466.0339
2022-12-31T11:49:49.513Z,400.2963
2022-12-31T11:54:50.979Z,421.51938
2022-12-31T11:59:52.688Z,475.03448
2022-12-31T12:04:54.337Z,461.64706
2022-12-31T12:09:56.120Z,475.03448
2022-12-31T12:14:57.873Z,384
2022-12-31T12:19:59.461Z,475.03448
2022-12-31T12:25:01.275Z,421.51938
2022-12-31T12:30:03.264Z,484.35088
2022-12-31T12:35:05.104Z,494
2022-12-31T12:40:06.852Z,660.27907
2022-12-31T12:45:08.644Z,677.33333
2022-12-31T12:50:11.005Z,668.70588
2022-12-31T12:55:12.725Z,776.43243
2022-12-31T13:00:14.992Z,824
2022-12-31T13:05:16.818Z,787.83562
2022-12-31T13:10:18.642Z,953.83607
2022-12-31T13:15:20.293Z,1201.14286
2022-12-31T13:20:22.742Z,1024.70175
2022-12-31T13:25:24.488Z,1344
2022-12-31T13:30:26.137Z,1344
2022-12-31T13:35:27.886Z,1704
2022-12-31T13:40:29.623Z,1523.48718
2022-12-31T13:45:31.530Z,1254.6383
2022-12-31T13:50:33.731Z,1176
2022-12-31T13:55:35.492Z,1446.43902
2022-12-31T14:00:37.539Z,1565.05263
2022-12-31T14:05:39.507Z,1344
2022-12-31T14:10:41.188Z,1176
2022-12-31T14:15:42.691Z,1084.74074
2022-12-31T14:20:44.275Z,1106.26415
2022-12-31T14:25:45.741Z,1064
2022-12-31T14:30:48.103Z,937.54839
2022-12-31T14:35:49.640Z,1084.74074
2022-12-31T14:40:51.398Z,1176
2022-12-31T14:45:53.054Z,891.69231
2022-12-31T14:50:55.732Z,921.77778
2022-12-31T14:55:57.440Z,988.0678
2022-12-31T15:01:00.301Z,877.33333
2022-12-31T15:06:02.172Z,824
2022-12-31T15:11:03.967Z,744
2022-12-31T15:16:05.734Z,525.13208
2022-12-31T15:21:07.539Z,536.30769
2022-12-31T15:26:09.079Z,453.09091
2022-12-31T15:31:17.486Z,479.65217
2022-12-31T15:36:20.456Z,396.94118
2022-12-31T15:41:22.256Z,403.70149
2022-12-31T15:46:24.148Z,176.45283
2022-12-31T15:51:26.050Z,174.71161
2022-12-31T15:56:27.840Z,177.33333
2022-12-31T16:01:30.092Z,206.12766
2022-12-31T16:06:32.258Z,241.58454
2022-12-31T16:11:34.054Z,233.20188
2022-12-31T16:16:35.556Z,217.77778
2022-12-31T16:21:37.373Z,200.66667
2022-12-31T16:26:39.133Z,207.24786
2022-12-31T16:31:40.797Z,230.51163
2022-12-31T16:36:42.621Z,231.85047
2022-12-31T16:41:44.088Z,264.83333
2022-12-31T16:46:45.565Z,248.9505
2022-12-31T16:51:47.635Z,247.44828
2022-12-31T16:56:49.341Z,237.33333
2022-12-31T17:01:51.585Z,215.36564
2022-12-31T17:06:53.168Z,211.82609
2022-12-31T17:11:54.860Z,215.36564
2022-12-31T17:17:02.133Z,221.47748
2022-12-31T17:22:05.188Z,226.56881
2022-12-31T17:27:06.710Z,247.44828
2022-12-31T17:32:08.706Z,227.87097
2022-12-31T17:37:14.442Z,210.66667
2022-12-31T17:42:19.493Z,202.82353
2022-12-31T17:47:21.140Z,225.27854
2022-12-31T17:52:22.934Z,210.66667
2022-12-31T17:57:24.639Z,194.4065
2022-12-31T18:02:26.408Z,188.44444
2022-12-31T18:07:28.135Z,184.625
2022-12-31T18:12:29.637Z,179.1145
2022-12-31T18:17:31.296Z,182.75969
2022-12-31T18:22:33.115Z,164.78853
2022-12-31T18:27:34.882Z,173.85075
2022-12-31T18:32:36.870Z,179.1145
2022-12-31T18:37:38.697Z,175.57895
2022-12-31T18:42:40.424Z,150.71141
2022-12-31T18:47:41.853Z,162.43972
2022-12-31T18:52:43.898Z,167.18841
2022-12-31T18:57:45.356Z,164.78853
2022-12-31T19:02:47.400Z,172.14815
2022-12-31T19:07:49.109Z,186.51969
2022-12-31T19:12:50.877Z,189.41833
2022-12-31T19:17:52.685Z,188.44444
2022-12-31T19:22:54.515Z,180.92308
2022-12-31T19:27:56.364Z,164.78853
2022-12-31T19:32:58.651Z,157.14879
2022-12-31T19:38:00.460Z,149.33333
2022-12-31T19:43:02.282Z,145.96721
2022-12-31T19:48:04.136Z,140.17834
2022-12-31T19:53:06.599Z,134.71207
2022-12-31T19:58:08.383Z,135.90031
2022-12-31T20:03:10.367Z,134.12346
2022-12-31T20:08:12.248Z,138.93671
2022-12-31T20:13:13.992Z,136.5
2022-12-31T20:18:15.825Z,136.5
2022-12-31T20:23:17.620Z,145.30719
2022-12-31T20:28:19.471Z,152.10811
2022-12-31T20:33:21.470Z,147.30033
2022-12-31T20:38:23.299Z,144.65147
2022-12-31T20:43:25.123Z,142.70968
2022-12-31T20:48:26.887Z,144.65147
2022-12-31T20:53:28.952Z,141.4359
2022-12-31T20:58:30.731Z,138.32177
2022-12-31T21:04:03.026Z,136.5
2022-12-31T21:09:06.733Z,137.71069
2022-12-31T21:14:08.527Z,135.90031
2022-12-31T21:19:10.328Z,140.17834
2022-12-31T21:24:11.835Z,145.30719
2022-12-31T21:29:13.339Z,148.65116
2022-12-31T21:34:15.111Z,166.38267
2022-12-31T21:39:16.705Z,157.14879
2022-12-31T21:44:18.218Z,127.8806
2022-12-31T21:49:19.730Z,128.43114
2022-12-31T21:54:21.613Z,138.93671
2022-12-31T21:59:23.155Z,151.40741
2022-12-31T22:05:00.447Z,181.83784
2022-12-31T22:10:03.756Z,201.74059
2022-12-31T22:15:15.640Z,181.83784
2022-12-31T22:20:27.016Z,207.24786
2022-12-31T22:25:29.344Z,208.37768
2022-12-31T22:30:30.860Z,211.82609
2022-12-31T22:35:32.598Z,192.3871
2022-12-31T22:40:34.219Z,199.60166
2022-12-31T22:45:35.663Z,163.21708
2022-12-31T22:50:37.124Z,194.4065
2022-12-31T22:55:39.124Z,189.41833
2022-12-31T23:00:40.872Z,205.01695
2022-12-31T23:05:42.614Z,216.56637
2022-12-31T23:10:44.136Z,209.51724
2022-12-31T23:15:45.696Z,210.66667
2022-12-31T23:20:47.220Z,208.37768
2022-12-31T23:25:48.819Z,199.60166
2022-12-31T23:30:50.660Z,203.91561
2022-12-31T23:35:52.591Z,198.54545
2022-12-31T23:40:54.093Z,214.17544
2022-12-31T23:45:55.895Z,205.01695
2022-12-31T23:50:57.324Z,193.39271
2022-12-31T23:55:58.944Z,197.49794
